Time;durP1;ratioP1;P1;durP2;ratioP2;P2;SDS_P1;SDS_P2;PMS_P1;PMS_P2;Temp;Humidity;BMP_temperature;BMP_pressure;BME280_temperature;BME280_humidity;BME280_pressure;Samples;Min_cycle;Max_cycle;Signal;HPM_P1;HPM_P2
2022/09/07 00:00:54;;;;;;;5.00;2.70;;;;;;;14.73;43.72;101790.50;1694338;84;26467;-62
2022/09/07 00:03:21;;;;;;;10.50;2.95;;;;;;;14.71;43.94;101797.41;1694594;84;25751;-62
2022/09/07 00:05:50;;;;;;;6.58;2.87;;;;;;;14.68;43.82;101794.97;1694220;84;27522;-63
2022/09/07 00:08:20;;;;;;;3.27;2.47;;;;;;;14.67;43.80;101797.31;1694174;84;25946;-62
2022/09/07 00:10:57;;;;;;;5.12;2.33;;;;;;;14.64;43.75;101789.94;1694625;84;25530;-62
2022/09/07 00:13:28;;;;;;;5.95;3.00;;;;;;;14.60;43.82;101797.48;1694356;83;25783;-62
2022/09/07 00:15:56;;;;;;;6.60;2.58;;;;;;;14.56;43.69;101796.06;1693878;84;25717;-63
2022/09/07 00:18:23;;;;;;;7.42;3.02;;;;;;;14.53;43.76;101791.75;1694737;83;27383;-62
2022/09/07 00:21:02;;;;;;;17.32;3.30;;;;;;;14.51;43.86;101793.77;1689251;84;26548;-62
2022/09/07 00:23:30;;;;;;;5.25;2.75;;;;;;;14.45;43.93;101794.29;1700727;83;25795;-62
2022/09/07 00:26:04;;;;;;;9.00;3.75;;;;;;;14.41;44.15;101790.16;1720221;81;26186;-62
2022/09/07 00:28:32;;;;;;;6.25;2.20;;;;;;;14.38;44.21;101787.72;1733013;82;25748;-63
2022/09/07 00:30:59;;;;;;;4.97;2.60;;;;;;;14.28;44.31;101779.56;1733004;82;27409;-63
2022/09/07 00:33:27;;;;;;;12.23;2.52;;;;;;;14.23;44.39;101785.86;1722013;82;25737;-62
2022/09/07 00:35:57;;;;;;;12.53;2.55;;;;;;;14.18;44.46;101789.48;1686565;84;25849;-63
2022/09/07 00:38:24;;;;;;;7.17;2.70;;;;;;;14.13;44.40;101787.66;1706254;84;25716;-63
2022/09/07 00:40:52;;;;;;;10.72;2.83;;;;;;;14.08;44.37;101785.36;1709552;82;25645;-64
2022/09/07 00:43:36;;;;;;;4.67;2.60;;;;;;;13.99;44.30;101782.98;1706789;83;27475;-63
2022/09/07 00:46:06;;;;;;;4.83;2.55;;;;;;;13.79;44.86;101780.66;1706182;84;25693;-63
2022/09/07 00:48:56;;;;;;;13.05;3.15;;;;;;;13.79;44.86;101780.66;1706231;83;25746;-64
2022/09/07 00:51:34;;;;;;;14.35;2.37;;;;;;;13.74;44.62;101780.19;1706197;84;25651;-63
2022/09/07 00:54:09;;;;;;;5.67;2.60;;;;;;;13.68;44.59;101780.72;1706070;84;25851;-63
2022/09/07 00:56:40;;;;;;;4.87;2.45;;;;;;;13.64;44.56;101773.84;1702083;83;27459;-62
2022/09/07 00:59:11;;;;;;;4.80;2.37;;;;;;;13.62;45.03;101780.75;1663697;84;25530;-63
2022/09/07 01:01:38;;;;;;;4.53;2.30;;;;;;;13.59;45.07;101775.59;1695166;84;25673;-63
2022/09/07 01:04:06;;;;;;;9.93;2.98;;;;;;;13.56;45.01;101774.53;1700038;84;25538;-63
2022/09/07 01:06:37;;;;;;;6.85;2.05;;;;;;;13.57;45.09;101770.33;1706119;83;25965;-63
2022/09/07 01:09:15;;;;;;;10.58;2.42;;;;;;;13.56;44.88;101770.47;1706087;84;28203;-63
2022/09/07 01:11:49;;;;;;;15.63;3.30;;;;;;;13.56;44.91;101772.66;1706064;84;25756;-63
2022/09/07 01:14:14;;;;;;;6.97;2.30;;;;;;;13.57;44.76;101780.30;1705380;84;25853;-63
2022/09/07 01:17:19;;;;;;;7.33;2.60;;;;;;;13.55;44.75;101780.92;1701548;83;26319;-63
2022/09/07 01:20:32;;;;;;;14.18;2.37;;;;;;;13.53;44.89;101776.13;1670627;85;25557;-64
2022/09/07 01:23:28;;;;;;;7.72;2.30;;;;;;;13.49;45.08;101768.78;1695000;84;27476;-63
2022/09/07 01:26:19;;;;;;;5.72;2.65;;;;;;;13.44;45.33;101774.58;1714473;83;25751;-62
2022/09/07 01:28:52;;;;;;;4.83;2.42;;;;;;;13.31;45.21;101772.02;1712834;83;25732;-64
2022/09/07 01:31:27;;;;;;;8.53;2.35;;;;;;;13.20;45.32;101767.17;1711988;83;25776;-63
2022/09/07 01:34:21;;;;;;;4.25;2.27;;;;;;;13.14;45.45;101767.19;1705575;83;25829;-62
2022/09/07 01:37:00;;;;;;;10.25;2.85;;;;;;;13.07;45.47;101767.34;1708984;83;27348;-63
2022/09/07 01:39:42;;;;;;;5.37;2.35;;;;;;;13.01;45.78;101756.55;1709677;82;25463;-62
2022/09/07 01:42:14;;;;;;;6.37;2.08;;;;;;;12.90;46.22;101761.50;1676992;83;25807;-62
2022/09/07 01:44:53;;;;;;;7.60;2.65;;;;;;;12.81;46.75;101763.61;1711053;82;25770;-62
2022/09/07 01:47:40;;;;;;;5.25;2.45;;;;;;;12.75;46.34;101764.09;1710122;82;25965;-62
2022/09/07 01:50:21;;;;;;;7.60;2.42;;;;;;;12.73;46.50;101762.88;1711135;82;27300;-62
2022/09/07 01:53:03;;;;;;;12.03;2.58;;;;;;;12.67;46.22;101760.19;1709970;82;25854;-62
2022/09/07 01:55:44;;;;;;;11.38;2.72;;;;;;;12.65;46.08;101765.36;1709600;82;26409;-63
2022/09/07 01:58:44;;;;;;;9.50;2.87;;;;;;;12.61;46.14;101765.23;1699520;83;25756;-62
2022/09/07 02:01:25;;;;;;;10.23;2.20;;;;;;;12.55;46.32;101763.88;1709546;83;25851;-64
2022/09/07 02:04:07;;;;;;;7.85;2.47;;;;;;;12.49;46.36;101765.73;1699940;83;27479;-62
2022/09/07 02:06:57;;;;;;;6.85;2.55;;;;;;;12.47;46.41;101762.30;1698981;83;25787;-62
2022/09/07 02:09:30;;;;;;;6.40;2.47;;;;;;;12.46;46.70;101761.45;1709576;83;25880;-62
2022/09/07 02:12:01;;;;;;;7.00;2.37;;;;;;;12.44;46.92;101759.36;1709813;83;25824;-63
2022/09/07 02:14:38;;;;;;;21.15;2.30;;;;;;;12.43;46.82;101757.64;1709897;83;25802;-62
2022/09/07 02:17:20;;;;;;;8.55;1.90;;;;;;;12.43;47.06;101761.69;1709329;83;27502;-63
2022/09/07 02:19:58;;;;;;;4.15;1.85;;;;;;;12.35;46.80;101752.89;1709753;83;26107;-62
2022/09/07 02:22:28;;;;;;;11.10;2.45;;;;;;;12.29;46.66;101746.61;1709444;83;25826;-61
2022/09/07 02:24:59;;;;;;;9.88;3.25;;;;;;;12.28;46.67;101750.29;1712238;83;25663;-62
2022/09/07 02:27:40;;;;;;;4.50;2.30;;;;;;;12.26;46.93;101746.88;1710581;81;26508;-62
2022/09/07 02:30:09;;;;;;;4.87;2.08;;;;;;;12.20;47.23;101742.84;1709543;83;27549;-62
2022/09/07 02:32:36;;;;;;;11.85;2.33;;;;;;;12.16;47.03;101741.34;1709312;83;25795;-63
2022/09/07 02:35:06;;;;;;;9.48;2.25;;;;;;;12.15;47.34;101743.67;1709977;83;25850;-62
2022/09/07 02:37:36;;;;;;;14.00;1.87;;;;;;;12.13;47.15;101745.66;1709312;83;25720;-62
2022/09/07 02:40:05;;;;;;;11.33;2.40;;;;;;;12.12;46.98;101739.02;1710305;82;25796;-61
2022/09/07 02:42:34;;;;;;;9.58;2.30;;;;;;;12.11;47.22;101735.48;1711068;83;27568;-62
2022/09/07 02:45:05;;;;;;;10.05;1.82;;;;;;;12.09;47.75;101740.63;1711248;83;25974;-61
2022/09/07 02:47:50;;;;;;;8.30;2.65;;;;;;;12.01;47.63;101747.47;1710995;82;25820;-62
2022/09/07 02:50:53;;;;;;;10.53;2.33;;;;;;;11.96;47.56;101744.26;1711090;82;25905;-62
2022/09/07 02:54:01;;;;;;;3.92;2.42;;;;;;;11.94;47.37;101741.33;1711179;82;25755;-62
2022/09/07 02:56:57;;;;;;;9.25;2.70;;;;;;;11.92;47.08;101739.23;1692321;83;27514;-63
2022/09/07 02:59:54;;;;;;;8.48;2.22;;;;;;;11.93;47.17;101740.45;1655648;85;25979;-62
2022/09/07 03:02:57;;;;;;;14.50;2.27;;;;;;;11.93;47.05;101732.86;1704509;82;25776;-62
2022/09/07 03:05:53;;;;;;;7.62;2.20;;;;;;;11.90;47.24;101734.81;1696030;84;25674;-62
2022/09/07 03:08:25;;;;;;;6.92;2.10;;;;;;;11.89;47.13;101734.44;1716538;82;25440;-62
2022/09/07 03:10:53;;;;;;;4.62;2.42;;;;;;;11.85;47.35;101737.03;1695920;84;28153;-61
2022/09/07 03:13:26;;;;;;;6.12;1.90;;;;;;;11.82;47.76;101740.45;1716115;82;25799;-63
2022/09/07 03:15:54;;;;;;;7.42;2.62;;;;;;;11.81;47.88;101734.70;1696373;84;25787;-62
2022/09/07 03:18:22;;;;;;;9.60;2.15;;;;;;;11.79;47.58;101739.34;1711198;83;26213;-62
2022/09/07 03:20:49;;;;;;;6.58;2.33;;;;;;;11.77;48.00;101741.30;1698758;84;25752;-61
2022/09/07 03:23:17;;;;;;;16.05;2.40;;;;;;;11.70;48.44;101733.70;1698723;84;27480;-63
2022/09/07 03:25:44;;;;;;;30.43;4.55;;;;;;;11.64;48.44;101728.80;1674217;84;25814;-62
2022/09/07 03:28:11;;;;;;;23.32;2.60;;;;;;;11.60;48.62;101734.04;1679897;84;25799;-62
2022/09/07 03:30:46;;;;;;;8.98;2.67;;;;;;;11.57;48.94;101734.27;1685196;85;25657;-62
2022/09/07 03:33:14;;;;;;;12.25;2.83;;;;;;;11.52;49.03;101731.92;1654993;86;26151;-62
2022/09/07 03:35:45;;;;;;;15.13;2.45;;;;;;;11.48;49.21;101737.20;1685272;85;27476;-62
2022/09/07 03:38:12;;;;;;;8.68;2.98;;;;;;;11.44;49.45;101739.75;1683260;85;25736;-62
2022/09/07 03:40:39;;;;;;;16.27;2.50;;;;;;;11.40;49.32;101741.82;1694687;83;25736;-62
2022/09/07 03:43:06;;;;;;;5.95;2.47;;;;;;;11.40;49.31;101741.82;1695287;83;25708;-62
2022/09/07 03:45:33;;;;;;;5.83;2.33;;;;;;;11.39;49.58;101735.21;1677756;83;25836;-62
2022/09/07 03:48:00;;;;;;;5.90;2.42;;;;;;;11.38;49.52;101734.38;1655334;85;27533;-62
2022/09/07 03:50:28;;;;;;;9.58;2.70;;;;;;;11.35;49.15;101735.06;1666092;86;25834;-62
2022/09/07 03:52:55;;;;;;;6.78;2.98;;;;;;;11.39;48.91;101741.95;1694012;84;25478;-62
2022/09/07 03:55:21;;;;;;;10.95;2.17;;;;;;;11.38;48.79;101738.87;1684312;85;25760;-62
2022/09/07 03:57:49;;;;;;;10.82;1.92;;;;;;;11.41;48.75;101738.16;1655588;86;25993;-61
2022/09/07 04:00:17;;;;;;;15.08;5.37;;;;;;;11.43;48.53;101736.68;1684416;83;27439;-62
2022/09/07 04:02:44;;;;;;;7.78;1.98;;;;;;;11.46;48.51;101739.15;1655379;86;25743;-62
2022/09/07 04:05:11;;;;;;;14.83;2.15;;;;;;;11.47;48.45;101744.91;1692137;83;26531;-62
2022/09/07 04:07:38;;;;;;;10.85;2.27;;;;;;;11.50;48.64;101744.69;1724872;83;25588;-64
2022/09/07 04:10:07;;;;;;;13.00;2.37;;;;;;;11.53;48.31;101748.97;1724762;83;25708;-63
2022/09/07 04:12:34;;;;;;;6.75;2.77;;;;;;;11.54;48.29;101742.11;1686864;83;27547;-63
2022/09/07 04:15:01;;;;;;;8.20;2.85;;;;;;;11.58;48.17;101744.07;1655570;86;25895;-63
2022/09/07 04:17:28;;;;;;;28.02;3.17;;;;;;;11.58;48.32;101743.60;1685684;83;25757;-63
2022/09/07 04:19:55;;;;;;;28.27;4.87;;;;;;;11.59;48.37;101745.32;1685116;85;27777;-62
2022/09/07 04:22:22;;;;;;;19.25;3.65;;;;;;;11.59;48.35;101741.28;1685597;83;25800;-63
2022/09/07 04:24:49;;;;;;;16.60;2.87;;;;;;;11.59;48.38;101735.89;1685018;84;27463;-64
2022/09/07 04:27:16;;;;;;;10.82;2.52;;;;;;;11.60;48.68;101742.13;1692148;83;25789;-63
2022/09/07 04:29:43;;;;;;;34.43;3.55;;;;;;;11.62;48.76;101741.52;1708544;82;25787;-63
2022/09/07 04:32:10;;;;;;;36.08;3.08;;;;;;;11.63;48.76;101743.72;1708615;83;26261;-63
2022/09/07 04:34:37;;;;;;;15.18;2.58;;;;;;;11.65;49.42;101750.73;1707574;82;25768;-63
2022/09/07 04:37:04;;;;;;;22.25;2.55;;;;;;;11.65;49.81;101741.77;1706259;82;28493;-63
2022/09/07 04:39:31;;;;;;;26.35;2.60;;;;;;;11.65;49.42;101746.69;1699549;83;25709;-64
2022/09/07 04:41:58;;;;;;;18.00;2.65;;;;;;;11.71;49.91;101746.67;1702930;84;25823;-63
2022/09/07 04:44:26;;;;;;;41.73;4.55;;;;;;;11.73;50.09;101741.55;1704845;84;25767;-62
2022/09/07 04:46:53;;;;;;;28.23;3.02;;;;;;;11.73;49.92;101741.55;1708827;84;25762;-63
2022/09/07 04:49:20;;;;;;;28.60;3.35;;;;;;;11.78;49.83;101743.02;1708667;84;27439;-63
2022/09/07 04:51:47;;;;;;;29.57;3.22;;;;;;;11.80;49.57;101743.25;1708472;83;25808;-63
2022/09/07 04:54:14;;;;;;;32.23;3.65;;;;;;;11.84;49.45;101740.70;1708589;82;25728;-62
2022/09/07 04:56:41;;;;;;;29.00;3.00;;;;;;;11.88;49.47;101736.77;1708588;82;26281;-63
2022/09/07 04:59:08;;;;;;;28.10;3.27;;;;;;;12.00;49.42;101743.56;1708749;83;25796;-62
2022/09/07 05:01:35;;;;;;;32.08;3.65;;;;;;;12.07;49.15;101739.38;1702867;84;27573;-63
2022/09/07 05:04:03;;;;;;;45.10;8.18;;;;;;;12.15;49.04;101737.44;1698544;83;25482;-63
2022/09/07 05:06:31;;;;;;;20.48;3.58;;;;;;;12.25;49.05;101741.12;1699788;84;25765;-63
2022/09/07 05:08:58;;;;;;;22.98;3.27;;;;;;;12.32;49.09;101736.94;1698246;84;25791;-64
2022/09/07 05:11:27;;;;;;;30.50;3.65;;;;;;;12.41;48.94;101737.17;1675696;84;25875;-62
2022/09/07 05:14:01;;;;;;;20.62;7.22;;;;;;;12.47;48.93;101733.48;1708690;82;27469;-62
2022/09/07 05:16:30;;;;;;;22.30;3.55;;;;;;;12.57;48.88;101736.78;1708409;84;25756;-63
2022/09/07 05:19:01;;;;;;;15.50;3.35;;;;;;;12.65;48.69;101733.80;1708716;84;25509;-63
2022/09/07 05:21:32;;;;;;;26.62;3.50;;;;;;;12.72;48.57;101734.67;1708675;82;25765;-62
2022/09/07 05:24:01;;;;;;;14.60;3.12;;;;;;;12.76;48.44;101735.64;1706918;84;25784;-63
2022/09/07 05:26:32;;;;;;;10.10;2.08;;;;;;;12.84;48.42;101725.06;1702937;84;27515;-62
2022/09/07 05:29:01;;;;;;;8.73;1.85;;;;;;;12.93;48.02;101729.33;1687171;83;25499;-62
2022/09/07 05:31:28;;;;;;;12.10;2.15;;;;;;;12.99;47.68;101732.38;1684813;83;25659;-62
2022/09/07 05:33:56;;;;;;;19.57;2.33;;;;;;;13.07;47.43;101732.22;1684740;85;25764;-62
2022/09/07 05:36:25;;;;;;;4.92;2.20;;;;;;;13.13;47.43;101731.19;1684792;83;25680;-62
2022/09/07 05:38:54;;;;;;;8.08;1.92;;;;;;;13.19;46.95;101723.06;1684596;85;28190;-62
2022/09/07 05:41:24;;;;;;;6.47;1.92;;;;;;;13.25;46.99;101727.09;1684622;83;25858;-63
2022/09/07 05:43:53;;;;;;;9.53;1.95;;;;;;;13.30;46.89;101727.58;1684741;85;25841;-63
2022/09/07 05:46:21;;;;;;;13.60;2.98;;;;;;;13.40;46.87;101729.02;1684908;85;25733;-63
2022/09/07 05:48:47;;;;;;;17.52;2.25;;;;;;;13.50;46.79;101732.66;1684737;85;25771;-62
2022/09/07 05:51:15;;;;;;;8.85;2.25;;;;;;;13.58;46.94;101738.25;1684749;83;28400;-62
2022/09/07 05:53:46;;;;;;;11.10;2.52;;;;;;;13.68;46.99;101732.89;1684567;85;25861;-62
2022/09/07 05:56:13;;;;;;;12.35;2.60;;;;;;;13.78;46.86;101737.03;1684809;85;25779;-63
2022/09/07 05:58:40;;;;;;;7.60;2.67;;;;;;;13.86;46.52;101729.09;1684843;85;25795;-63
2022/09/07 06:01:12;;;;;;;10.20;2.20;;;;;;;13.99;46.40;101728.00;1684999;85;25780;-62
2022/09/07 06:03:41;;;;;;;13.18;2.08;;;;;;;14.12;45.80;101728.64;1685590;83;28489;-63
2022/09/07 06:06:15;;;;;;;7.17;1.90;;;;;;;14.25;45.83;101732.47;1695434;83;25650;-62
2022/09/07 06:08:51;;;;;;;10.32;2.33;;;;;;;14.34;46.06;101731.64;1695591;84;25544;-63
2022/09/07 06:11:24;;;;;;;19.70;2.30;;;;;;;14.43;46.01;101729.98;1695819;82;25769;-63
2022/09/07 06:13:51;;;;;;;7.67;2.20;;;;;;;14.50;45.67;101728.42;1695852;83;25738;-62
2022/09/07 06:16:19;;;;;;;8.20;2.30;;;;;;;14.61;45.15;101732.86;1695650;82;28492;-63
2022/09/07 06:18:48;;;;;;;2.77;1.70;;;;;;;14.74;44.86;101735.33;1695802;84;25724;-63
2022/09/07 06:21:19;;;;;;;8.98;1.70;;;;;;;14.90;44.74;101730.73;1695587;84;25747;-63
2022/09/07 06:23:47;;;;;;;9.78;1.90;;;;;;;15.06;44.24;101729.30;1688517;84;25746;-64
2022/09/07 06:26:15;;;;;;;10.08;1.77;;;;;;;15.19;44.02;101725.83;1694476;84;26053;-63
2022/09/07 06:28:46;;;;;;;9.03;1.70;;;;;;;15.34;43.70;101721.67;1692172;84;28464;-63
2022/09/07 06:31:17;;;;;;;11.00;2.20;;;;;;;15.43;43.50;101720.44;1690403;84;26338;-63
2022/09/07 06:33:46;;;;;;;10.18;2.12;;;;;;;15.53;43.71;101723.12;1683032;83;25799;-63
2022/09/07 06:36:17;;;;;;;5.20;1.67;;;;;;;15.62;43.57;101727.19;1692187;84;26218;-63
2022/09/07 06:38:45;;;;;;;12.40;2.60;;;;;;;15.70;43.73;101728.31;1692794;83;25535;-63
2022/09/07 06:41:16;;;;;;;13.80;3.83;;;;;;;15.81;44.19;101729.50;1677281;84;27448;-63
2022/09/07 06:43:44;;;;;;;13.18;3.77;;;;;;;15.90;44.07;101728.65;1680363;84;25838;-63
2022/09/07 06:46:12;;;;;;;16.55;3.58;;;;;;;16.03;43.88;101733.75;1660339;85;25891;-63
2022/09/07 06:48:42;;;;;;;7.58;2.87;;;;;;;16.17;44.09;101731.53;1682570;84;25693;-62
2022/09/07 06:51:17;;;;;;;10.55;2.58;;;;;;;16.31;43.92;101722.03;1660464;85;25769;-63
2022/09/07 06:53:47;;;;;;;13.78;2.60;;;;;;;16.43;43.37;101720.84;1680462;84;28310;-63
2022/09/07 06:56:17;;;;;;;9.45;2.42;;;;;;;16.58;43.01;101721.19;1660239;86;25809;-63
2022/09/07 06:58:45;;;;;;;12.23;2.80;;;;;;;16.77;42.83;101720.67;1680440;84;25917;-62
2022/09/07 07:01:19;;;;;;;10.65;2.08;;;;;;;16.92;42.62;101713.72;1660722;85;26325;-62
2022/09/07 07:03:47;;;;;;;23.15;2.60;;;;;;;17.07;42.40;101710.48;1691822;84;25772;-62
2022/09/07 07:06:15;;;;;;;9.40;2.10;;;;;;;17.17;41.59;101713.45;1698492;84;27482;-62
2022/09/07 07:08:42;;;;;;;19.25;2.45;;;;;;;17.20;41.48;101709.59;1698563;84;25750;-64
2022/09/07 07:11:12;;;;;;;12.33;1.80;;;;;;;17.27;41.52;101709.30;1698331;84;25829;-62
2022/09/07 07:13:42;;;;;;;10.90;2.20;;;;;;;17.32;41.22;101704.75;1698508;84;25730;-63
2022/09/07 07:16:13;;;;;;;5.58;2.35;;;;;;;17.37;41.23;101707.83;1698563;84;25804;-63
2022/09/07 07:18:41;;;;;;;10.20;1.87;;;;;;;17.41;41.38;101709.23;1698743;84;27400;-63
2022/09/07 07:21:14;;;;;;;8.53;1.77;;;;;;;17.49;41.63;101714.73;1698241;84;25750;-63
2022/09/07 07:23:41;;;;;;;10.00;1.95;;;;;;;17.56;41.10;101712.24;1699572;83;25780;-62
2022/09/07 07:26:18;;;;;;;11.83;2.37;;;;;;;17.61;41.45;101713.96;1702922;84;25729;-62
2022/09/07 07:28:48;;;;;;;4.90;1.90;;;;;;;17.68;41.59;101716.91;1693951;84;25901;-62
2022/09/07 07:31:18;;;;;;;8.53;2.10;;;;;;;17.78;41.76;101717.66;1684831;84;28284;-62
2022/09/07 07:33:47;;;;;;;11.63;2.05;;;;;;;17.87;41.75;101720.42;1684959;84;25494;-63
2022/09/07 07:36:21;;;;;;;12.20;2.22;;;;;;;17.94;41.83;101716.88;1684670;85;25828;-62
2022/09/07 07:38:51;;;;;;;10.45;2.67;;;;;;;18.05;41.99;101718.52;1683968;83;26311;-64
2022/09/07 07:41:21;;;;;;;6.90;2.20;;;;;;;18.17;41.78;101708.67;1685649;85;25520;-62
2022/09/07 07:43:55;;;;;;;7.83;2.40;;;;;;;18.27;41.86;101712.13;1685212;83;27461;-62
2022/09/07 07:46:26;;;;;;;9.20;2.60;;;;;;;18.35;41.65;101712.67;1685278;83;25933;-63
2022/09/07 07:48:53;;;;;;;7.85;2.12;;;;;;;18.46;41.41;101709.14;1685519;83;25798;-62
2022/09/07 07:51:21;;;;;;;7.90;2.20;;;;;;;18.55;40.97;101709.16;1685431;83;25537;-62
2022/09/07 07:53:48;;;;;;;7.83;1.80;;;;;;;18.63;40.48;101709.17;1685391;85;25752;-62
2022/09/07 07:56:15;;;;;;;20.88;1.98;;;;;;;18.72;40.12;101701.36;1685756;83;28492;-63
2022/09/07 07:58:45;;;;;;;12.13;2.08;;;;;;;18.78;40.12;101698.48;1685243;83;25894;-62
2022/09/07 08:01:16;;;;;;;10.53;2.47;;;;;;;18.88;39.98;101695.09;1685724;83;25725;-63
2022/09/07 08:03:45;;;;;;;4.70;2.30;;;;;;;18.98;40.05;101692.22;1713715;82;25853;-63
2022/09/07 08:06:16;;;;;;;6.70;2.70;;;;;;;19.14;40.11;101696.84;1732819;82;25803;-63
2022/09/07 08:08:44;;;;;;;8.95;2.60;;;;;;;19.33;39.82;101690.70;1732340;82;27483;-63
2022/09/07 08:11:17;;;;;;;12.10;2.10;;;;;;;19.55;39.62;101691.86;1732622;82;25685;-64
2022/09/07 08:13:48;;;;;;;4.37;2.20;;;;;;;19.79;39.63;101692.33;1732393;82;25767;-63
2022/09/07 08:16:17;;;;;;;8.40;2.35;;;;;;;20.04;39.24;101685.97;1732717;82;25820;-63
2022/09/07 08:18:44;;;;;;;9.05;2.22;;;;;;;20.16;38.82;101688.13;1732515;82;25880;-64
2022/09/07 08:21:13;;;;;;;74.92;5.15;;;;;;;20.23;38.86;101684.15;1732340;82;27527;-63
2022/09/07 08:23:42;;;;;;;11.00;2.60;;;;;;;20.43;38.58;101687.81;1729250;82;25735;-63
2022/09/07 08:26:10;;;;;;;7.80;2.83;;;;;;;20.62;38.32;101690.09;1712879;83;25720;-63
2022/09/07 08:28:40;;;;;;;8.25;2.45;;;;;;;20.90;38.15;101681.39;1721592;83;25831;-63
2022/09/07 08:31:11;;;;;;;8.58;2.60;;;;;;;21.16;37.69;101684.79;1728048;81;25942;-63
2022/09/07 08:33:39;;;;;;;9.48;1.95;;;;;;;21.44;37.44;101678.19;1727910;81;27454;-63
2022/09/07 08:36:11;;;;;;;15.38;2.02;;;;;;;21.76;36.59;101684.37;1728255;81;25708;-63
2022/09/07 08:38:38;;;;;;;13.70;2.10;;;;;;;21.95;36.70;101680.23;1727944;81;25775;-64
2022/09/07 08:41:43;;;;;;;6.58;2.20;;;;;;;22.19;36.00;101679.05;1697898;83;26047;-65
2022/09/07 08:44:32;;;;;;;8.05;2.40;;;;;;;22.39;36.06;101667.48;1695777;83;26553;-64
2022/09/07 08:47:26;;;;;;;9.65;2.45;;;;;;;22.65;35.88;101672.97;1696114;83;27494;-64
2022/09/07 08:50:15;;;;;;;;;;;;;;;22.93;35.87;101661.22;1698101;84;25810;-64
2022/09/07 08:53:07;;;;;;;9.33;3.02;;;;;;;23.12;35.58;101657.80;1695443;84;25729;-63
2022/09/07 08:55:51;;;;;;;12.93;2.65;;;;;;;23.24;34.60;101649.06;1695558;82;26464;-63
2022/09/07 08:58:48;;;;;;;13.50;2.17;;;;;;;23.33;34.95;101641.01;1695672;82;26697;-63
2022/09/07 09:01:20;;;;;;;11.22;2.60;;;;;;;23.45;34.18;101633.89;1695490;84;27586;-63
2022/09/07 09:03:49;;;;;;;11.35;2.12;;;;;;;23.49;33.96;101630.75;1676819;84;25792;-62
2022/09/07 09:06:27;;;;;;;9.55;1.98;;;;;;;23.59;34.48;101632.62;1702923;84;25738;-63
2022/09/07 09:09:11;;;;;;;7.62;2.58;;;;;;;23.65;34.47;101626.84;1702773;84;25672;-63
2022/09/07 09:12:00;;;;;;;6.28;2.55;;;;;;;23.84;34.72;101626.62;1689351;84;25798;-63
2022/09/07 09:14:58;;;;;;;5.40;2.62;;;;;;;23.91;34.48;101629.73;1702826;84;27565;-63
2022/09/07 09:17:36;;;;;;;7.60;2.47;;;;;;;24.00;34.41;101629.04;1702866;84;25786;-63
2022/09/07 09:20:11;;;;;;;11.30;2.55;;;;;;;23.96;34.22;101629.14;1702866;82;25755;-63
2022/09/07 09:22:38;;;;;;;12.88;2.77;;;;;;;23.91;33.75;101633.84;1702959;83;25928;-65
2022/09/07 09:25:22;;;;;;;10.10;2.22;;;;;;;23.87;34.27;101628.97;1701990;83;25868;-63
2022/09/07 09:27:50;;;;;;;5.12;2.25;;;;;;;24.14;34.53;101621.70;1691406;84;27597;-63
2022/09/07 09:30:20;;;;;;;8.70;2.70;;;;;;;24.41;32.94;101627.27;1695523;84;25775;-64
2022/09/07 09:32:51;;;;;;;8.20;2.72;;;;;;;24.45;33.04;101620.83;1694470;84;25530;-63
2022/09/07 09:35:31;;;;;;;15.70;2.67;;;;;;;24.63;32.92;101617.48;1694482;84;25843;-62
2022/09/07 09:37:58;;;;;;;5.95;2.10;;;;;;;24.99;33.01;101614.89;1694594;84;26017;-63
2022/09/07 09:40:30;;;;;;;9.95;2.52;;;;;;;25.40;31.89;101608.30;1694430;83;27466;-62
2022/09/07 09:43:19;;;;;;;8.70;5.22;;;;;;;25.73;31.99;101601.84;1693608;84;25794;-62
2022/09/07 09:45:50;;;;;;;9.28;2.75;;;;;;;26.08;31.58;101600.64;1694794;84;25855;-63
2022/09/07 09:48:31;;;;;;;8.15;2.27;;;;;;;26.42;29.90;101617.88;1694284;84;25848;-63
2022/09/07 09:51:00;;;;;;;14.00;2.45;;;;;;;26.39;30.36;101607.30;1691559;84;25712;-63
2022/09/07 09:53:44;;;;;;;9.85;2.60;;;;;;;26.47;30.02;101607.55;1694300;84;27478;-63
2022/09/07 09:56:11;;;;;;;13.18;2.30;;;;;;;26.38;29.85;101603.68;1692967;84;25766;-63
2022/09/07 09:58:46;;;;;;;7.55;2.08;;;;;;;26.22;30.55;101606.42;1694430;84;25731;-63
2022/09/07 10:01:31;;;;;;;8.33;2.50;;;;;;;26.01;30.67;101601.22;1694303;84;25783;-63
2022/09/07 10:04:20;;;;;;;11.90;3.27;;;;;;;25.89;30.57;101588.11;1694610;84;25718;-63
2022/09/07 10:07:22;;;;;;;9.20;2.62;;;;;;;25.75;30.81;101580.98;1663187;84;26286;-63
2022/09/07 10:09:53;;;;;;;10.55;2.80;;;;;;;25.77;31.36;101588.50;1694700;84;25716;-63
2022/09/07 10:12:34;;;;;;;14.45;2.52;;;;;;;25.76;31.13;101586.27;1695026;84;30570;-63
2022/09/07 10:15:07;;;;;;;11.97;3.22;;;;;;;25.70;31.14;101598.16;1694840;84;25829;-63
2022/09/07 10:17:40;;;;;;;8.68;2.70;;;;;;;25.68;31.06;101595.31;1663276;84;25717;-64
2022/09/07 10:20:18;;;;;;;7.47;2.50;;;;;;;25.82;31.50;101582.33;1694772;84;27517;-63
2022/09/07 10:22:56;;;;;;;11.25;2.05;;;;;;;26.17;31.02;101600.73;1689475;84;25859;-63
2022/09/07 10:25:38;;;;;;;6.33;2.47;;;;;;;26.53;30.78;101590.95;1714139;83;25745;-63
2022/09/07 10:28:16;;;;;;;10.35;2.30;;;;;;;27.12;30.16;101581.58;1717247;83;26267;-64
2022/09/07 10:31:21;;;;;;;6.22;2.52;;;;;;;27.71;29.58;101584.79;1717306;83;25687;-63
2022/09/07 10:34:08;;;;;;;9.53;2.37;;;;;;;28.07;29.05;101578.92;1717151;83;28136;-65
2022/09/07 10:36:50;;;;;;;4.55;2.12;;;;;;;28.57;28.72;101578.28;1717454;83;25579;-63
2022/09/07 10:39:36;;;;;;;13.78;2.50;;;;;;;29.27;27.95;101576.66;1716768;83;25748;-64
2022/09/07 10:42:27;;;;;;;6.22;1.92;;;;;;;29.92;27.63;101578.06;1717266;83;26393;-63
2022/09/07 10:45:09;;;;;;;3.83;2.37;;;;;;;30.66;26.55;101569.45;1717180;83;25771;-64
2022/09/07 10:48:02;;;;;;;24.40;2.20;;;;;;;31.47;26.16;101563.45;1717290;83;26887;-64
2022/09/07 10:50:38;;;;;;;4.12;1.70;;;;;;;32.12;25.24;101560.91;1717009;83;25845;-64
2022/09/07 10:53:35;;;;;;;14.45;2.40;;;;;;;32.35;25.02;101562.27;1717089;83;25721;-64
2022/09/07 10:56:15;;;;;;;6.62;2.05;;;;;;;31.97;24.67;101560.19;1716854;83;25742;-64
2022/09/07 10:59:30;;;;;;;9.23;2.00;;;;;;;31.57;24.18;101553.00;1716748;83;25720;-63
2022/09/07 11:02:23;;;;;;;8.53;1.95;;;;;;;31.32;24.40;101552.97;1717312;82;28377;-63
2022/09/07 11:05:08;;;;;;;5.62;1.70;;;;;;;30.81;24.69;101546.65;1707414;84;25801;-64
2022/09/07 11:07:52;;;;;;;9.45;1.80;;;;;;;30.91;25.23;101540.69;1706407;84;25742;-63
2022/09/07 11:10:42;;;;;;;13.80;2.75;;;;;;;31.25;24.15;101543.98;1697148;83;26254;-64
2022/09/07 11:13:15;;;;;;;8.03;2.30;;;;;;;31.40;24.22;101537.80;1656742;86;25748;-65
2022/09/07 11:15:52;;;;;;;14.73;2.55;;;;;;;31.72;24.35;101532.91;1695733;84;27485;-64
2022/09/07 11:18:44;;;;;;;4.80;1.92;;;;;;;31.89;24.16;101520.84;1695598;83;25445;-64
2022/09/07 11:21:18;;;;;;;14.50;2.33;;;;;;;31.91;24.34;101520.05;1688477;83;25808;-65
2022/09/07 11:23:50;;;;;;;7.75;1.90;;;;;;;31.48;23.42;101527.61;1695476;83;25778;-63
2022/09/07 11:26:32;;;;;;;10.50;2.08;;;;;;;30.82;24.35;101517.22;1688219;84;25696;-65
2022/09/07 11:29:16;;;;;;;4.17;1.85;;;;;;;30.45;24.84;101513.02;1683631;81;27506;-65
2022/09/07 11:31:48;;;;;;;11.85;2.20;;;;;;;30.00;24.98;101515.28;1696996;83;25892;-64
2022/09/07 11:34:40;;;;;;;9.48;2.50;;;;;;;29.56;25.57;101508.86;1723679;82;25791;-64
2022/09/07 11:37:29;;;;;;;9.48;2.40;;;;;;;29.13;25.96;101512.38;1687712;83;26600;-63
2022/09/07 11:40:08;;;;;;;5.20;2.00;;;;;;;28.53;26.53;101518.97;1673929;84;25750;-63
2022/09/07 11:42:44;;;;;;;7.03;2.10;;;;;;;27.88;27.22;101513.65;1685181;85;27498;-63
2022/09/07 11:45:19;;;;;;;9.40;2.42;;;;;;;27.49;27.69;101513.41;1685744;85;25793;-64
2022/09/07 11:48:07;;;;;;;9.88;2.30;;;;;;;27.27;28.11;101506.09;1685535;85;25793;-63
2022/09/07 11:50:40;;;;;;;4.47;2.10;;;;;;;27.14;28.65;101508.47;1685397;85;26460;-63
2022/09/07 11:53:17;;;;;;;13.40;2.08;;;;;;;27.00;28.96;101505.01;1685797;85;25709;-63
2022/09/07 11:55:48;;;;;;;13.60;2.30;;;;;;;26.86;29.24;101498.78;1685649;85;27462;-63